Date,TemperatureHighF,TemperatureAvgF,TemperatureLowF,DewpointHighF,DewpointAvgF,DewpointLowF,HumidityHigh,HumidityAvg,HumidityLow,PressureMaxIn,PressureMinIn,WindSpeedMaxMPH,WindSpeedAvgMPH,GustSpeedMaxMPH,PrecipitationSumIn
2013-11-1,48,40,33,31,25,19,73,56,32,30.23,29.94,5,1,7,0.00
2013-11-2,67,46,27,29,18,10,66,37,12,30.25,29.73,2,0,4,0.00
2013-11-3,65,53,36,28,17,9,71,27,13,29.73,29.37,5,1,9,0.00
2013-11-4,44,34,27,29,23,17,92,65,44,29.98,29.68,4,1,6,0.00
2013-11-5,39,31,22,24,16,7,80,55,33,30.26,29.95,4,1,6,0.00
2013-11-6,49,37,22,16,12,1,51,36,25,30.41,30.24,4,0,6,0.00
2013-11-7,58,43,30,24,19,14,53,39,23,30.42,29.99,2,0,4,0.00
2013-11-8,65,52,41,24,19,14,42,28,15,29.99,29.70,4,0,8,0.00
2013-11-9,62,47,35,32,25,18,77,44,22,30.18,29.89,1,0,4,0.00
2013-11-10,63,47,34,29,22,18,78,43,18,30.21,30.10,2,0,4,0.00
2013-11-11,62,42,30,32,23,16,91,54,17,30.62,30.14,5,0,5,0.00
2013-11-12,58,43,29,30,26,20,92,56,26,30.65,30.38,2,0,4,0.00
2013-11-13,64,49,38,21,13,5,47,26,10,30.37,29.93,1,0,2,0.00
2013-11-14,54,47,38,33,27,15,65,47,29,29.98,29.67,2,0,4,0.00
2013-11-15,60,47,36,29,20,12,62,36,17,29.67,29.38,2,0,5,0.00
2013-11-16,57,44,33,31,22,14,82,45,19,29.49,29.21,3,0,5,0.00
2013-11-17,51,40,30,27,20,15,71,45,25,30.08,29.49,4,0,8,0.00
2013-11-18,61,43,30,19,14,7,53,33,12,30.17,30.00,2,0,4,0.00
2013-11-19,57,47,35,22,16,12,42,29,17,30.00,29.64,3,0,5,0.00
2013-11-20,55,44,29,26,23,19,82,45,28,29.94,29.67,5,1,8,0.00
2013-11-21,28,16,12,24,12,8,90,85,80,30.83,29.94,3,1,6,0.00
2013-11-22,36,26,15,22,16,10,83,66,50,30.84,30.70,0,0,1,0.01
2013-11-23,35,28,24,21,17,8,79,62,49,30.77,30.43,1,0,2,0.00
2013-11-24,36,30,22,26,23,18,88,76,54,30.43,30.08,0,0,3,0.01
2013-11-25,38,33,27,29,22,16,89,64,42,30.39,30.15,6,1,11,0.03
2013-11-26,44,34,24,24,20,17,84,59,35,30.52,30.32,3,0,5,0.01
2013-11-27,59,43,32,20,18,14,58,38,18,30.32,30.04,3,0,4,0.03
2013-11-28,47,34,28,26,22,18,83,62,39,30.21,30.11,1,0,2,0.00
2013-11-29,57,42,28,22,18,15,73,42,20,30.20,30.11,1,0,5,0.00
2013-11-30,54,41,32,16,13,9,47,33,17,30.18,30.08,2,0,4,0.00